Time;durP1;ratioP1;P1;durP2;ratioP2;P2;SDS_P1;SDS_P2;PMS_P1;PMS_P2;Temp;Humidity;BMP_temperature;BMP_pressure;BME280_temperature;BME280_humidity;BME280_pressure;Samples;Min_cycle;Max_cycle;Signal;HPM_P1;HPM_P2
2022/01/10 00:05:11;;;;;;;39.83;29.10;;;5.60;82.70;;;;;;10945967;32;20423;-70
2022/01/10 00:11:13;;;;;;;33.08;24.05;;;5.70;82.20;;;;;;10945615;32;20469;-70
2022/01/10 00:17:15;;;;;;;35.15;30.30;;;6.00;82.50;;;;;;10944891;32;20411;-70
2022/01/10 00:23:17;;;;;;;39.38;28.48;;;6.10;82.20;;;;;;10945284;32;20023;-70
2022/01/10 00:29:19;;;;;;;33.92;25.48;;;6.20;82.20;;;;;;10944810;32;20027;-70
2022/01/10 00:35:22;;;;;;;38.80;31.08;;;6.20;81.70;;;;;;10944706;32;20054;-70
2022/01/10 00:41:24;;;;;;;46.25;35.72;;;5.90;81.90;;;;;;10944553;32;20027;-70
2022/01/10 00:47:28;;;;;;;32.67;25.02;;;6.00;81.80;;;;;;10944414;32;20014;-70
2022/01/10 00:53:30;;;;;;;32.05;25.58;;;5.80;81.30;;;;;;10939528;32;20031;-70
2022/01/10 00:59:32;;;;;;;34.78;26.00;;;5.70;82.30;;;;;;10943688;32;20070;-70
2022/01/10 01:05:39;;;;;;;49.40;38.78;;;5.40;82.00;;;;;;10943339;32;20437;-73
2022/01/10 01:24:08;;;;;;;45.83;32.33;;;5.90;81.90;;;;;;10943109;32;20023;-73
2022/01/10 01:30:11;;;;;;;35.90;27.48;;;6.10;81.70;;;;;;10941897;32;20315;-73
2022/01/10 01:36:16;;;;;;;34.70;26.17;;;5.90;81.50;;;;;;10942391;32;20054;-74
2022/01/10 01:42:35;;;;;;;34.25;27.85;;;5.70;81.70;;;;;;10947535;27;20070;-73
2022/01/10 01:48:37;;;;;;;33.60;26.07;;;5.80;82.20;;;;;;10942450;32;20061;-70
2022/01/10 01:54:41;;;;;;;36.65;27.83;;;5.80;81.50;;;;;;10942232;32;20407;-70
2022/01/10 02:00:43;;;;;;;34.60;25.33;;;5.60;82.10;;;;;;10942084;32;20035;-70
2022/01/10 02:06:46;;;;;;;47.50;32.28;;;5.90;81.90;;;;;;10941934;32;20363;-70
2022/01/10 02:12:48;;;;;;;34.60;24.27;;;6.20;81.30;;;;;;10941805;32;20023;-73
2022/01/10 02:18:51;;;;;;;34.25;27.48;;;6.10;80.70;;;;;;10941573;32;20057;-73
2022/01/10 02:24:54;;;;;;;40.22;29.92;;;5.90;81.30;;;;;;10941520;32;20379;-73
2022/01/10 02:30:57;;;;;;;46.92;36.63;;;6.10;81.40;;;;;;10927967;32;20093;-73
2022/01/10 02:37:00;;;;;;;48.25;33.95;;;6.30;80.60;;;;;;10941341;32;20054;-73
2022/01/10 02:43:07;;;;;;;33.78;26.98;;;6.30;80.20;;;;;;10935790;32;20422;-73
2022/01/10 02:49:34;;;;;;;42.35;31.62;;;6.10;80.30;;;;;;10935165;32;20026;-73
2022/01/10 02:55:37;;;;;;;50.08;34.28;;;6.30;80.60;;;;;;10948557;32;20027;-73
2022/01/10 03:01:39;;;;;;;38.13;30.20;;;6.40;80.10;;;;;;10934748;32;20035;-73
2022/01/10 03:07:42;;;;;;;39.67;28.70;;;6.40;79.90;;;;;;10947973;32;20023;-73
2022/01/10 03:13:45;;;;;;;32.10;25.70;;;6.40;79.70;;;;;;10947723;32;20027;-73
2022/01/10 03:19:48;;;;;;;45.65;33.20;;;6.20;79.60;;;;;;10947377;32;20442;-73
2022/01/10 03:25:51;;;;;;;43.42;31.37;;;6.10;80.30;;;;;;10947388;32;20379;-73
2022/01/10 03:31:54;;;;;;;37.08;29.70;;;6.20;80.10;;;;;;10947118;32;20320;-73
2022/01/10 03:37:57;;;;;;;29.65;25.42;;;6.40;79.50;;;;;;10946891;32;20035;-73
2022/01/10 03:44:00;;;;;;;45.22;34.78;;;6.50;79.30;;;;;;10933387;32;20407;-73
2022/01/10 03:50:05;;;;;;;43.67;32.35;;;6.70;79.90;;;;;;10945703;32;20058;-73
2022/01/10 03:56:08;;;;;;;41.37;31.80;;;6.50;79.40;;;;;;10946210;32;20031;-73
2022/01/10 04:02:12;;;;;;;30.30;23.90;;;6.50;79.40;;;;;;10942830;32;20027;-73
2022/01/10 04:08:15;;;;;;;36.80;28.33;;;6.50;79.20;;;;;;10945751;32;20031;-73
2022/01/10 04:14:17;;;;;;;26.27;20.55;;;6.50;79.10;;;;;;10945556;32;20034;-74
2022/01/10 04:20:20;;;;;;;41.13;31.27;;;6.50;79.10;;;;;;10945343;32;20027;-73
2022/01/10 04:26:22;;;;;;;36.58;27.08;;;6.40;79.00;;;;;;10931765;32;20067;-73
2022/01/10 04:32:29;;;;;;;29.58;22.45;;;6.40;79.20;;;;;;10944160;32;20349;-73
2022/01/10 04:38:31;;;;;;;28.92;23.98;;;6.50;79.10;;;;;;10944845;32;20035;-73
2022/01/10 04:44:34;;;;;;;39.25;26.77;;;6.50;79.10;;;;;;10944342;32;20022;-73
2022/01/10 04:56:40;;;;;;;33.40;25.50;;;6.60;78.60;;;;;;10944130;32;20027;-73
2022/01/10 05:02:46;;;;;;;31.45;24.12;;;6.60;78.50;;;;;;10943558;32;20062;-73
2022/01/10 05:08:48;;;;;;;32.53;26.85;;;6.70;78.70;;;;;;10943684;32;20061;-73
2022/01/10 05:14:51;;;;;;;33.88;25.42;;;6.80;78.90;;;;;;10943441;32;20035;-73
2022/01/10 05:20:54;;;;;;;37.95;27.75;;;6.80;78.70;;;;;;10943108;32;20027;-73
2022/01/10 05:26:56;;;;;;;38.25;27.95;;;6.90;78.90;;;;;;10942978;32;20061;-73
2022/01/10 05:32:59;;;;;;;32.20;26.60;;;6.90;78.70;;;;;;10942842;32;20391;-73
2022/01/10 05:39:02;;;;;;;26.20;23.30;;;6.90;78.60;;;;;;10938239;32;20031;-73
2022/01/10 05:45:05;;;;;;;28.52;19.62;;;6.80;78.50;;;;;;10928980;32;20045;-73
2022/01/10 05:51:07;;;;;;;31.55;23.20;;;6.80;78.40;;;;;;10942276;32;20403;-73
2022/01/10 05:57:11;;;;;;;32.72;22.70;;;6.70;78.40;;;;;;10937996;32;20049;-73
2022/01/10 06:03:14;;;;;;;25.40;19.73;;;6.70;78.70;;;;;;10941863;32;20035;-73
2022/01/10 06:09:17;;;;;;;29.48;22.45;;;6.80;78.70;;;;;;10941854;32;20392;-73
2022/01/10 06:15:20;;;;;;;44.85;30.37;;;6.70;78.70;;;;;;10949018;32;20026;-73
2022/01/10 06:21:22;;;;;;;43.20;33.05;;;6.70;78.30;;;;;;10954110;32;20023;-74
2022/01/10 06:27:25;;;;;;;26.35;23.00;;;6.80;78.00;;;;;;10940443;32;20031;-73
2022/01/10 06:33:27;;;;;;;36.35;24.33;;;6.80;77.70;;;;;;10952586;32;20046;-73
2022/01/10 06:39:30;;;;;;;34.17;27.83;;;6.70;77.90;;;;;;10949271;32;20057;-73
2022/01/10 06:45:34;;;;;;;28.30;22.15;;;6.70;78.00;;;;;;10922672;32;20062;-70
2022/01/10 06:51:37;;;;;;;21.83;17.87;;;6.60;78.00;;;;;;10915772;32;20028;-70
2022/01/10 06:57:39;;;;;;;25.62;19.60;;;6.50;78.20;;;;;;10915564;32;20045;-70
2022/01/10 07:03:42;;;;;;;23.17;18.33;;;6.40;78.30;;;;;;10945464;32;20425;-70
2022/01/10 07:09:46;;;;;;;31.17;22.42;;;6.40;78.30;;;;;;10947073;32;20061;-70
2022/01/10 07:15:48;;;;;;;27.87;20.80;;;6.60;78.30;;;;;;10944263;32;20062;-71
2022/01/10 07:21:52;;;;;;;26.75;21.23;;;6.60;78.20;;;;;;10952121;32;20355;-71
2022/01/10 07:27:55;;;;;;;25.70;21.08;;;6.70;78.40;;;;;;10945688;32;20370;-71
2022/01/10 07:33:57;;;;;;;26.70;19.45;;;6.80;78.50;;;;;;10947097;32;20026;-71
2022/01/10 07:39:59;;;;;;;28.02;20.33;;;6.80;78.50;;;;;;10946625;32;20031;-71
2022/01/10 07:46:03;;;;;;;35.05;26.62;;;6.40;78.60;;;;;;10943364;32;20034;-71
2022/01/10 07:52:05;;;;;;;30.40;23.00;;;6.40;79.00;;;;;;10945609;32;20053;-70
2022/01/10 07:58:08;;;;;;;33.22;25.40;;;6.50;78.70;;;;;;10945089;32;20031;-71
2022/01/10 08:04:10;;;;;;;40.67;28.90;;;6.50;78.70;;;;;;10945640;32;20023;-71
2022/01/10 08:10:12;;;;;;;42.03;30.15;;;6.60;79.00;;;;;;10938424;32;20305;-71
2022/01/10 08:16:14;;;;;;;36.40;24.52;;;6.60;78.90;;;;;;10937749;32;20061;-71
2022/01/10 08:22:16;;;;;;;29.08;23.05;;;6.60;79.00;;;;;;10941275;32;20031;-71
2022/01/10 08:28:18;;;;;;;31.15;24.48;;;6.50;79.40;;;;;;10940931;32;20050;-71
2022/01/10 08:34:21;;;;;;;31.30;23.38;;;6.80;79.80;;;;;;10944566;32;20057;-71
2022/01/10 08:40:24;;;;;;;23.62;17.83;;;7.00;79.50;;;;;;10944029;32;20438;-71
2022/01/10 08:46:26;;;;;;;21.77;18.95;;;7.20;79.30;;;;;;10942998;32;20081;-71
2022/01/10 08:52:28;;;;;;;22.45;18.33;;;7.30;79.00;;;;;;10944054;32;20438;-71
2022/01/10 08:58:32;;;;;;;23.67;18.30;;;7.60;79.00;;;;;;10941723;32;20023;-71
2022/01/10 09:04:35;;;;;;;22.13;16.73;;;7.70;78.90;;;;;;10930343;32;20363;-70
2022/01/10 09:10:37;;;;;;;20.10;16.60;;;7.90;78.50;;;;;;10943153;32;20426;-71
2022/01/10 09:16:40;;;;;;;15.60;12.80;;;8.00;78.40;;;;;;10940383;32;20049;-70
2022/01/10 09:22:42;;;;;;;16.92;13.35;;;8.00;78.40;;;;;;10941397;32;20053;-71
2022/01/10 09:28:44;;;;;;;20.55;13.13;;;7.90;78.80;;;;;;10914329;32;20046;-70
2022/01/10 09:34:47;;;;;;;19.02;12.65;;;7.90;79.20;;;;;;10915652;32;20043;-71
2022/01/10 09:40:49;;;;;;;16.17;11.02;;;8.20;79.10;;;;;;10942250;32;20026;-71
2022/01/10 09:46:51;;;;;;;15.90;12.15;;;8.20;78.90;;;;;;10974798;27;20053;-71
2022/01/10 09:52:54;;;;;;;17.25;13.45;;;8.00;78.90;;;;;;10975328;32;20080;-71
2022/01/10 09:58:57;;;;;;;15.70;10.13;;;8.00;79.60;;;;;;10975582;32;20049;-70
2022/01/10 10:05:08;;;;;;;15.15;11.63;;;8.20;79.50;;;;;;10979419;32;20010;-71
2022/01/10 10:11:11;;;;;;;16.12;12.40;;;8.00;79.40;;;;;;10979393;32;20023;-70
2022/01/10 10:17:18;;;;;;;17.60;12.77;;;7.80;79.60;;;;;;10978985;32;20203;-71
2022/01/10 10:23:22;;;;;;;15.70;11.45;;;7.70;80.90;;;;;;10975285;32;20042;-71
2022/01/10 10:29:24;;;;;;;14.63;11.23;;;8.30;80.30;;;;;;10978633;32;20038;-71
2022/01/10 10:35:26;;;;;;;17.55;12.02;;;8.20;80.30;;;;;;10978720;32;20042;-71
2022/01/10 10:41:29;;;;;;;13.73;9.20;;;8.50;79.90;;;;;;10964912;32;20331;-70
2022/01/10 10:47:33;;;;;;;14.35;9.55;;;8.40;79.20;;;;;;10963996;32;20430;-71
2022/01/10 10:53:35;;;;;;;12.00;7.50;;;8.10;80.30;;;;;;10973845;32;20045;-71
2022/01/10 10:59:43;;;;;;;14.32;10.65;;;7.80;80.40;;;;;;10978911;32;20030;-71
2022/01/10 11:05:47;;;;;;;11.35;6.78;;;7.80;81.70;;;;;;10985769;32;20448;-71
2022/01/10 11:11:50;;;;;;;13.77;8.57;;;8.20;80.80;;;;;;10985606;32;20061;-74
2022/01/10 11:18:03;;;;;;;12.18;8.77;;;8.30;81.20;;;;;;10984900;32;20034;-73
2022/01/10 11:24:06;;;;;;;12.48;8.63;;;8.70;80.90;;;;;;10985072;32;20015;-71
2022/01/10 11:30:34;;;;;;;17.35;9.55;;;8.70;80.10;;;;;;10973630;32;20045;-69
2022/01/10 11:36:36;;;;;;;12.20;8.90;;;8.70;80.40;;;;;;10946823;32;20049;-71
2022/01/10 11:42:47;;;;;;;11.75;7.68;;;8.40;81.00;;;;;;10945382;32;20065;-71
2022/01/10 11:48:58;;;;;;;10.38;7.32;;;8.20;81.30;;;;;;10946497;32;20023;-71
2022/01/10 11:55:07;;;;;;;15.65;9.18;;;8.40;82.00;;;;;;10941962;32;20399;-71
2022/01/10 12:01:10;;;;;;;8.73;6.07;;;8.90;81.70;;;;;;10943938;32;20053;-71
2022/01/10 12:07:15;;;;;;;11.12;6.80;;;9.20;80.80;;;;;;10945528;32;20027;-71
2022/01/10 12:13:18;;;;;;;9.35;6.97;;;9.10;81.00;;;;;;10937997;32;20034;-71
2022/01/10 12:19:21;;;;;;;9.35;5.97;;;9.20;81.50;;;;;;10943797;32;20030;-70
2022/01/10 12:25:24;;;;;;;12.45;7.30;;;9.00;80.80;;;;;;10944291;32;20429;-71
2022/01/10 12:31:29;;;;;;;10.55;6.65;;;8.80;81.10;;;;;;10944575;32;20054;-70
2022/01/10 12:37:31;;;;;;;13.57;8.65;;;8.90;81.40;;;;;;10944684;32;20019;-71
2022/01/10 12:43:33;;;;;;;9.60;6.30;;;9.10;81.50;;;;;;10944239;32;20084;-71
2022/01/10 12:49:36;;;;;;;8.60;5.47;;;9.20;80.30;;;;;;10940010;32;20022;-69
2022/01/10 12:55:38;;;;;;;7.95;4.93;;;9.30;80.60;;;;;;10930870;32;20031;-71
2022/01/10 13:01:42;;;;;;;10.55;6.25;;;9.60;80.50;;;;;;10943019;32;20057;-71
2022/01/10 13:07:46;;;;;;;13.77;7.82;;;9.80;79.20;;;;;;10940802;32;20042;-71
2022/01/10 13:13:49;;;;;;;11.68;5.82;;;9.70;77.90;;;;;;10943334;32;20042;-69
2022/01/10 13:20:07;;;;;;;10.13;6.18;;;9.60;79.40;;;;;;10942932;32;20022;-71
2022/01/10 13:26:13;;;;;;;9.57;5.62;;;9.70;77.90;;;;;;10938857;32;20041;-70
2022/01/10 13:32:15;;;;;;;10.25;7.10;;;10.00;79.70;;;;;;10942270;32;20391;-71
2022/01/10 13:38:25;;;;;;;8.55;5.53;;;10.00;78.30;;;;;;10937517;32;20057;-71
2022/01/10 13:44:27;;;;;;;11.88;8.05;;;9.70;78.50;;;;;;10942468;32;20018;-70
2022/01/10 13:50:33;;;;;;;11.05;8.02;;;9.50;77.50;;;;;;10942567;32;20426;-70
2022/01/10 13:56:38;;;;;;;10.02;6.25;;;9.20;77.00;;;;;;10939503;32;20014;-71
2022/01/10 14:02:43;;;;;;;9.15;5.93;;;9.00;75.40;;;;;;10939620;32;20030;-71
2022/01/10 14:08:54;;;;;;;13.77;7.28;;;9.00;75.60;;;;;;10941910;32;20350;-70
2022/01/10 14:14:56;;;;;;;11.65;6.07;;;8.90;76.40;;;;;;10941755;32;20019;-70
2022/01/10 14:20:59;;;;;;;19.87;10.63;;;8.80;75.80;;;;;;10941761;32;20027;-69
2022/01/10 14:27:01;;;;;;;8.75;6.30;;;8.80;76.70;;;;;;10937362;32;20027;-70
2022/01/10 14:33:04;;;;;;;9.57;6.53;;;8.80;77.10;;;;;;10941574;32;20074;-70
2022/01/10 14:39:06;;;;;;;9.63;6.18;;;9.00;77.20;;;;;;10963267;32;20045;-68
2022/01/10 14:45:10;;;;;;;11.07;6.43;;;9.50;77.30;;;;;;10572881;32;12143692;-70
2022/01/10 14:51:13;;;;;;;9.68;6.28;;;9.80;75.80;;;;;;10907746;32;20428;-70
2022/01/10 14:57:16;;;;;;;13.10;8.20;;;9.60;75.30;;;;;;10906821;32;20031;-70
2022/01/10 15:03:19;;;;;;;13.07;5.72;;;9.30;74.80;;;;;;10907173;32;20023;-70
2022/01/10 15:09:21;;;;;;;10.30;5.80;;;9.20;75.70;;;;;;10927803;32;20057;-71
2022/01/10 15:15:24;;;;;;;9.05;6.22;;;9.10;75.60;;;;;;10985683;32;20458;-70
2022/01/10 15:21:26;;;;;;;10.95;6.80;;;9.00;74.70;;;;;;10985454;32;20027;-70
2022/01/10 15:27:29;;;;;;;11.30;6.55;;;9.20;73.80;;;;;;10985096;32;20045;-70
2022/01/10 15:33:31;;;;;;;8.30;4.80;;;9.00;74.00;;;;;;10984979;32;20019;-70
2022/01/10 15:39:35;;;;;;;10.43;6.70;;;8.80;74.90;;;;;;10956472;32;20061;-69
2022/01/10 15:45:38;;;;;;;9.98;6.75;;;8.60;76.00;;;;;;10944468;32;20039;-70
2022/01/10 15:51:40;;;;;;;11.07;7.62;;;8.40;74.70;;;;;;10946089;32;20018;-71
2022/01/10 15:57:43;;;;;;;8.93;6.35;;;8.10;74.60;;;;;;10946664;32;20097;-70
2022/01/10 16:03:47;;;;;;;8.50;6.10;;;8.00;75.20;;;;;;10977896;32;20057;-71
2022/01/10 16:09:49;;;;;;;16.10;8.63;;;7.90;76.20;;;;;;10983493;32;20049;-70
2022/01/10 16:15:52;;;;;;;13.62;8.00;;;7.80;77.10;;;;;;10975372;32;20030;-70
2022/01/10 16:21:54;;;;;;;13.95;9.60;;;8.10;77.80;;;;;;10975446;32;20069;-71
2022/01/10 16:27:56;;;;;;;29.60;9.93;;;8.20;78.30;;;;;;10945133;32;20023;-70
2022/01/10 16:33:58;;;;;;;14.13;10.90;;;8.60;78.50;;;;;;10944815;32;20317;-70
2022/01/10 16:40:03;;;;;;;11.85;8.57;;;8.70;78.10;;;;;;10944616;32;20054;-71
2022/01/10 16:46:05;;;;;;;15.23;11.57;;;8.70;78.60;;;;;;10941213;32;20034;-70
2022/01/10 16:52:07;;;;;;;13.50;8.60;;;8.50;78.80;;;;;;10944033;32;20037;-71
2022/01/10 16:58:13;;;;;;;11.10;9.45;;;8.60;78.80;;;;;;10943207;32;20403;-71
2022/01/10 17:04:16;;;;;;;16.65;12.55;;;8.70;78.80;;;;;;10939353;32;20045;-71
2022/01/10 17:10:21;;;;;;;16.37;12.32;;;8.70;78.80;;;;;;10943482;32;20418;-71
2022/01/10 17:16:23;;;;;;;18.70;13.82;;;8.80;78.90;;;;;;10951833;32;20419;-71
2022/01/10 17:22:25;;;;;;;25.12;18.30;;;8.60;79.00;;;;;;10977066;32;20072;-71
2022/01/10 17:28:29;;;;;;;23.40;16.05;;;8.40;78.90;;;;;;10980641;32;20057;-71
2022/01/10 17:34:31;;;;;;;26.52;19.02;;;8.50;78.90;;;;;;10966981;32;20049;-71
2022/01/10 17:40:34;;;;;;;17.33;14.13;;;8.40;78.40;;;;;;10966955;32;20027;-71
2022/01/10 17:46:37;;;;;;;24.10;18.17;;;8.40;78.50;;;;;;10982469;27;20056;-71
2022/01/10 17:52:48;;;;;;;21.77;14.63;;;8.30;78.40;;;;;;10975785;32;20027;-71
2022/01/10 17:58:51;;;;;;;25.17;17.75;;;8.30;78.20;;;;;;10979663;32;20023;-71
2022/01/10 18:04:54;;;;;;;23.10;15.70;;;8.00;78.60;;;;;;10978353;32;20023;-71
2022/01/10 18:10:56;;;;;;;22.77;17.12;;;8.10;78.50;;;;;;10979075;32;20315;-74
2022/01/10 18:17:00;;;;;;;26.27;18.62;;;8.10;78.50;;;;;;10975123;32;20041;-73
2022/01/10 18:23:04;;;;;;;26.62;22.13;;;7.70;78.10;;;;;;10979204;32;20010;-73
2022/01/10 18:29:06;;;;;;;28.30;22.00;;;7.20;79.50;;;;;;10951409;32;20351;-74
2022/01/10 18:35:09;;;;;;;28.35;20.17;;;6.90;80.10;;;;;;10937640;32;20049;-73
2022/01/10 18:41:12;;;;;;;29.60;23.00;;;7.10;80.30;;;;;;10939992;32;20023;-74
2022/01/10 18:47:14;;;;;;;25.70;20.15;;;6.70;80.60;;;;;;10941144;32;20041;-73
2022/01/10 18:53:16;;;;;;;51.55;39.67;;;6.80;80.20;;;;;;10941162;32;20016;-73
2022/01/10 18:59:18;;;;;;;47.50;33.85;;;6.70;80.40;;;;;;10941150;32;20023;-73
2022/01/10 19:05:21;;;;;;;39.08;30.52;;;6.40;80.30;;;;;;10940826;32;20042;-73
2022/01/10 19:11:24;;;;;;;44.72;35.63;;;6.40;81.20;;;;;;10940879;32;20289;-73
2022/01/10 19:17:26;;;;;;;38.88;29.55;;;6.50;80.90;;;;;;10940683;32;20340;-73
2022/01/10 19:23:28;;;;;;;35.67;27.62;;;6.60;80.50;;;;;;10942265;32;20049;-72
2022/01/10 19:29:31;;;;;;;48.65;36.08;;;6.60;80.40;;;;;;10947538;32;20294;-73
2022/01/10 19:35:35;;;;;;;33.47;27.23;;;6.50;80.50;;;;;;10947271;32;20041;-73
2022/01/10 19:41:37;;;;;;;43.83;33.22;;;6.50;80.50;;;;;;10948203;32;20027;-73
2022/01/10 19:47:42;;;;;;;36.53;28.15;;;6.50;80.30;;;;;;10946770;32;20391;-73
2022/01/10 19:53:44;;;;;;;32.13;27.25;;;6.50;79.90;;;;;;10946641;32;20019;-73
2022/01/10 19:59:46;;;;;;;34.58;28.10;;;6.10;75.00;;;;;;10946356;32;20022;-73
2022/01/10 20:05:49;;;;;;;38.42;29.73;;;5.60;80.00;;;;;;10946458;32;20015;-73
2022/01/10 20:11:51;;;;;;;34.50;26.85;;;5.80;80.70;;;;;;10942119;32;20399;-73
2022/01/10 20:17:54;;;;;;;35.05;29.02;;;6.10;80.40;;;;;;10944799;32;20019;-73
2022/01/10 20:23:56;;;;;;;35.38;30.73;;;6.10;80.20;;;;;;10941294;32;20049;-73
2022/01/10 20:29:59;;;;;;;32.70;25.60;;;6.10;79.80;;;;;;10944453;32;20346;-73
2022/01/10 20:36:02;;;;;;;37.88;29.65;;;6.10;79.90;;;;;;10942149;32;20019;-73
2022/01/10 20:42:05;;;;;;;41.35;32.70;;;6.10;79.80;;;;;;10944779;32;20027;-73
2022/01/10 20:48:08;;;;;;;31.40;23.60;;;6.10;79.50;;;;;;10944563;32;20035;-73
2022/01/10 20:54:10;;;;;;;33.25;25.08;;;6.10;79.30;;;;;;10943483;32;20045;-73
2022/01/10 21:00:13;;;;;;;34.65;25.77;;;5.90;79.10;;;;;;10940821;32;20019;-73
2022/01/10 21:06:16;;;;;;;31.15;21.23;;;5.80;79.70;;;;;;10944085;32;20037;-73
2022/01/10 21:12:19;;;;;;;29.70;22.60;;;5.80;79.50;;;;;;10943985;32;20011;-73
2022/01/10 21:18:22;;;;;;;30.52;23.10;;;5.80;79.20;;;;;;10943488;32;20057;-73
2022/01/10 21:24:25;;;;;;;33.63;23.48;;;5.80;79.00;;;;;;10943323;32;20390;-73
2022/01/10 21:30:28;;;;;;;28.85;23.62;;;5.60;79.40;;;;;;10942634;32;20018;-74
2022/01/10 21:36:30;;;;;;;30.25;21.70;;;5.60;79.40;;;;;;10943080;32;20038;-74
2022/01/10 21:42:32;;;;;;;28.12;20.48;;;5.60;79.10;;;;;;10942649;32;20391;-74
2022/01/10 21:48:34;;;;;;;39.17;25.00;;;5.50;79.40;;;;;;10942856;32;20027;-73
2022/01/10 21:54:38;;;;;;;31.87;21.67;;;5.50;79.40;;;;;;10939676;32;20429;-73
2022/01/10 22:00:41;;;;;;;30.17;22.10;;;5.50;79.20;;;;;;10942155;32;20441;-73
2022/01/10 22:06:44;;;;;;;39.75;28.12;;;5.40;79.00;;;;;;10941834;32;20023;-73
2022/01/10 22:12:48;;;;;;;30.92;22.62;;;5.30;79.50;;;;;;10941879;32;20045;-73
2022/01/10 22:18:50;;;;;;;32.00;23.05;;;5.30;79.50;;;;;;10941734;32;20046;-73
2022/01/10 22:24:53;;;;;;;38.90;27.25;;;5.30;79.40;;;;;;10941664;32;20037;-73
2022/01/10 22:30:55;;;;;;;34.30;24.45;;;5.20;79.60;;;;;;10941561;32;20046;-73
2022/01/10 22:36:59;;;;;;;32.90;24.85;;;5.30;79.70;;;;;;10938908;32;20019;-73
2022/01/10 22:43:02;;;;;;;35.83;26.55;;;5.30;79.60;;;;;;10941299;32;20031;-73
2022/01/10 22:49:04;;;;;;;37.90;26.05;;;5.20;79.60;;;;;;10941408;32;20037;-73
2022/01/10 22:55:07;;;;;;;33.80;25.70;;;5.30;79.70;;;;;;10942267;32;20023;-73
2022/01/10 23:01:09;;;;;;;35.38;25.92;;;5.10;79.40;;;;;;10947712;32;20487;-73
2022/01/10 23:07:13;;;;;;;38.25;28.73;;;5.00;80.20;;;;;;10948204;32;20395;-73
2022/01/10 23:13:15;;;;;;;33.63;27.33;;;5.00;80.00;;;;;;10947693;32;20058;-73
2022/01/10 23:19:17;;;;;;;40.40;29.40;;;5.10;79.80;;;;;;10947731;32;20026;-73
2022/01/10 23:25:20;;;;;;;55.88;36.17;;;5.20;79.70;;;;;;10945404;32;20015;-73
2022/01/10 23:31:22;;;;;;;35.58;24.85;;;5.30;79.60;;;;;;10947649;32;20384;-73
2022/01/10 23:37:24;;;;;;;42.60;29.80;;;5.40;79.50;;;;;;10947460;32;20014;-73
2022/01/10 23:43:27;;;;;;;35.50;25.15;;;5.40;79.40;;;;;;10946872;32;20054;-73
2022/01/10 23:49:29;;;;;;;35.35;24.08;;;5.50;79.00;;;;;;10946883;32;20037;-73
2022/01/10 23:55:32;;;;;;;32.40;25.42;;;5.30;79.30;;;;;;10944871;32;20057;-73
